sensor_id;sensor_type;location;lat;lon;timestamp;P1;durP1;ratioP1;P2;durP2;ratioP2
15254;SDS011;7730;49.610;11.136;2023-02-26T00:02:19;7.53;;;2.00;;
15254;SDS011;7730;49.610;11.136;2023-02-26T00:04:46;6.00;;;1.90;;
15254;SDS011;7730;49.610;11.136;2023-02-26T00:07:14;4.60;;;1.80;;
15254;SDS011;7730;49.610;11.136;2023-02-26T00:09:41;4.83;;;1.80;;
15254;SDS011;7730;49.610;11.136;2023-02-26T00:12:09;5.97;;;2.03;;
15254;SDS011;7730;49.610;11.136;2023-02-26T00:14:36;5.43;;;2.23;;
15254;SDS011;7730;49.610;11.136;2023-02-26T00:19:58;7.30;;;1.83;;
15254;SDS011;7730;49.610;11.136;2023-02-26T00:22:27;6.60;;;2.00;;
15254;SDS011;7730;49.610;11.136;2023-02-26T00:24:55;5.13;;;1.93;;
15254;SDS011;7730;49.610;11.136;2023-02-26T00:27:22;6.23;;;2.00;;
15254;SDS011;7730;49.610;11.136;2023-02-26T00:29:49;6.73;;;2.00;;
15254;SDS011;7730;49.610;11.136;2023-02-26T00:32:16;5.43;;;1.80;;
15254;SDS011;7730;49.610;11.136;2023-02-26T00:34:44;6.37;;;1.93;;
15254;SDS011;7730;49.610;11.136;2023-02-26T00:37:13;6.70;;;1.90;;
15254;SDS011;7730;49.610;11.136;2023-02-26T00:39:46;6.57;;;2.10;;
15254;SDS011;7730;49.610;11.136;2023-02-26T00:42:17;5.67;;;2.00;;
15254;SDS011;7730;49.610;11.136;2023-02-26T00:44:44;6.80;;;2.00;;
15254;SDS011;7730;49.610;11.136;2023-02-26T00:47:12;7.87;;;2.40;;
15254;SDS011;7730;49.610;11.136;2023-02-26T00:49:46;7.13;;;2.00;;
15254;SDS011;7730;49.610;11.136;2023-02-26T00:52:17;6.50;;;2.20;;
15254;SDS011;7730;49.610;11.136;2023-02-26T00:54:47;7.77;;;2.20;;
15254;SDS011;7730;49.610;11.136;2023-02-26T00:57:14;7.57;;;2.40;;
15254;SDS011;7730;49.610;11.136;2023-02-26T00:59:41;4.80;;;2.00;;
15254;SDS011;7730;49.610;11.136;2023-02-26T01:02:08;7.10;;;2.40;;
15254;SDS011;7730;49.610;11.136;2023-02-26T01:04:35;5.00;;;2.10;;
15254;SDS011;7730;49.610;11.136;2023-02-26T01:07:02;3.53;;;1.90;;
15254;SDS011;7730;49.610;11.136;2023-02-26T01:09:30;4.90;;;1.93;;
15254;SDS011;7730;49.610;11.136;2023-02-26T01:12:00;7.60;;;1.77;;
15254;SDS011;7730;49.610;11.136;2023-02-26T01:14:28;5.20;;;1.90;;
15254;SDS011;7730;49.610;11.136;2023-02-26T01:16:56;5.20;;;1.80;;
15254;SDS011;7730;49.610;11.136;2023-02-26T01:19:28;4.67;;;1.83;;
15254;SDS011;7730;49.610;11.136;2023-02-26T01:21:59;6.97;;;1.90;;
15254;SDS011;7730;49.610;11.136;2023-02-26T01:24:27;4.90;;;1.60;;
15254;SDS011;7730;49.610;11.136;2023-02-26T01:26:55;3.50;;;1.60;;
15254;SDS011;7730;49.610;11.136;2023-02-26T01:29:24;4.37;;;1.50;;
15254;SDS011;7730;49.610;11.136;2023-02-26T01:31:53;3.97;;;1.30;;
15254;SDS011;7730;49.610;11.136;2023-02-26T01:34:22;2.97;;;1.33;;
15254;SDS011;7730;49.610;11.136;2023-02-26T01:36:53;4.00;;;1.40;;
15254;SDS011;7730;49.610;11.136;2023-02-26T01:39:24;3.93;;;1.50;;
15254;SDS011;7730;49.610;11.136;2023-02-26T01:41:52;3.50;;;1.30;;
15254;SDS011;7730;49.610;11.136;2023-02-26T01:44:22;4.60;;;1.47;;
15254;SDS011;7730;49.610;11.136;2023-02-26T01:49:38;4.63;;;1.70;;
15254;SDS011;7730;49.610;11.136;2023-02-26T01:52:06;3.00;;;1.37;;
15254;SDS011;7730;49.610;11.136;2023-02-26T01:54:33;3.17;;;1.43;;
15254;SDS011;7730;49.610;11.136;2023-02-26T01:57:03;3.40;;;1.23;;
15254;SDS011;7730;49.610;11.136;2023-02-26T01:59:32;5.67;;;1.60;;
15254;SDS011;7730;49.610;11.136;2023-02-26T02:02:01;4.07;;;1.50;;
15254;SDS011;7730;49.610;11.136;2023-02-26T02:04:29;7.43;;;1.77;;
15254;SDS011;7730;49.610;11.136;2023-02-26T02:06:59;4.33;;;1.40;;
15254;SDS011;7730;49.610;11.136;2023-02-26T02:09:26;5.43;;;1.70;;
15254;SDS011;7730;49.610;11.136;2023-02-26T02:12:04;5.20;;;1.63;;
15254;SDS011;7730;49.610;11.136;2023-02-26T02:14:36;4.43;;;1.60;;
15254;SDS011;7730;49.610;11.136;2023-02-26T02:17:07;3.13;;;1.50;;
15254;SDS011;7730;49.610;11.136;2023-02-26T02:22:28;6.83;;;1.87;;
15254;SDS011;7730;49.610;11.136;2023-02-26T02:25:07;6.30;;;1.87;;
15254;SDS011;7730;49.610;11.136;2023-02-26T02:27:38;6.67;;;2.13;;
15254;SDS011;7730;49.610;11.136;2023-02-26T02:30:13;6.33;;;2.17;;
15254;SDS011;7730;49.610;11.136;2023-02-26T02:32:47;11.23;;;2.50;;
15254;SDS011;7730;49.610;11.136;2023-02-26T02:35:17;5.63;;;1.93;;
15254;SDS011;7730;49.610;11.136;2023-02-26T02:37:46;7.03;;;2.20;;
15254;SDS011;7730;49.610;11.136;2023-02-26T02:40:16;5.93;;;1.93;;
15254;SDS011;7730;49.610;11.136;2023-02-26T02:42:45;8.20;;;2.00;;
15254;SDS011;7730;49.610;11.136;2023-02-26T02:45:14;4.70;;;2.07;;
15254;SDS011;7730;49.610;11.136;2023-02-26T02:47:44;5.47;;;1.93;;
15254;SDS011;7730;49.610;11.136;2023-02-26T02:50:16;7.20;;;2.10;;
15254;SDS011;7730;49.610;11.136;2023-02-26T02:52:47;5.47;;;1.90;;
15254;SDS011;7730;49.610;11.136;2023-02-26T02:55:17;7.70;;;2.00;;
15254;SDS011;7730;49.610;11.136;2023-02-26T02:57:47;6.73;;;2.00;;
15254;SDS011;7730;49.610;11.136;2023-02-26T03:00:16;5.83;;;1.90;;
15254;SDS011;7730;49.610;11.136;2023-02-26T03:02:46;7.60;;;2.00;;
15254;SDS011;7730;49.610;11.136;2023-02-26T03:05:16;7.60;;;1.90;;
15254;SDS011;7730;49.610;11.136;2023-02-26T03:07:44;4.93;;;1.87;;
15254;SDS011;7730;49.610;11.136;2023-02-26T03:10:12;8.13;;;2.10;;
15254;SDS011;7730;49.610;11.136;2023-02-26T03:12:39;7.57;;;2.20;;
15254;SDS011;7730;49.610;11.136;2023-02-26T03:15:06;6.37;;;2.03;;
15254;SDS011;7730;49.610;11.136;2023-02-26T03:17:35;6.43;;;1.90;;
15254;SDS011;7730;49.610;11.136;2023-02-26T03:20:08;5.93;;;2.00;;
15254;SDS011;7730;49.610;11.136;2023-02-26T03:22:42;5.17;;;1.80;;
15254;SDS011;7730;49.610;11.136;2023-02-26T03:25:13;7.40;;;2.00;;
15254;SDS011;7730;49.610;11.136;2023-02-26T03:27:43;7.60;;;2.10;;
15254;SDS011;7730;49.610;11.136;2023-02-26T03:30:13;3.73;;;1.77;;
15254;SDS011;7730;49.610;11.136;2023-02-26T03:32:42;6.23;;;1.90;;
15254;SDS011;7730;49.610;11.136;2023-02-26T03:35:12;7.60;;;1.73;;
15254;SDS011;7730;49.610;11.136;2023-02-26T03:37:42;3.83;;;1.50;;
15254;SDS011;7730;49.610;11.136;2023-02-26T03:40:12;4.37;;;1.60;;
15254;SDS011;7730;49.610;11.136;2023-02-26T03:42:42;4.90;;;1.73;;
15254;SDS011;7730;49.610;11.136;2023-02-26T03:45:11;5.50;;;1.67;;
15254;SDS011;7730;49.610;11.136;2023-02-26T03:47:39;5.93;;;1.83;;
15254;SDS011;7730;49.610;11.136;2023-02-26T03:50:07;3.60;;;1.57;;
15254;SDS011;7730;49.610;11.136;2023-02-26T03:52:37;6.20;;;1.73;;
15254;SDS011;7730;49.610;11.136;2023-02-26T03:55:07;6.30;;;1.70;;
15254;SDS011;7730;49.610;11.136;2023-02-26T03:57:35;5.00;;;1.60;;
15254;SDS011;7730;49.610;11.136;2023-02-26T04:00:02;5.17;;;1.50;;
15254;SDS011;7730;49.610;11.136;2023-02-26T04:02:30;3.80;;;1.40;;
15254;SDS011;7730;49.610;11.136;2023-02-26T04:05:00;3.73;;;1.57;;
15254;SDS011;7730;49.610;11.136;2023-02-26T04:07:28;4.30;;;1.73;;
15254;SDS011;7730;49.610;11.136;2023-02-26T04:09:56;4.67;;;1.57;;
15254;SDS011;7730;49.610;11.136;2023-02-26T04:12:25;3.83;;;1.50;;
15254;SDS011;7730;49.610;11.136;2023-02-26T04:14:52;4.80;;;1.60;;
15254;SDS011;7730;49.610;11.136;2023-02-26T04:17:20;2.77;;;1.30;;
15254;SDS011;7730;49.610;11.136;2023-02-26T04:19:47;2.30;;;1.30;;
15254;SDS011;7730;49.610;11.136;2023-02-26T04:22:14;3.40;;;1.57;;
15254;SDS011;7730;49.610;11.136;2023-02-26T04:24:41;4.27;;;1.30;;
15254;SDS011;7730;49.610;11.136;2023-02-26T04:27:08;5.13;;;1.43;;
15254;SDS011;7730;49.610;11.136;2023-02-26T04:29:36;3.87;;;1.30;;
15254;SDS011;7730;49.610;11.136;2023-02-26T04:32:03;2.90;;;1.23;;
15254;SDS011;7730;49.610;11.136;2023-02-26T04:34:30;4.23;;;1.20;;
15254;SDS011;7730;49.610;11.136;2023-02-26T04:36:58;4.83;;;1.43;;
15254;SDS011;7730;49.610;11.136;2023-02-26T04:39:25;2.30;;;1.30;;
15254;SDS011;7730;49.610;11.136;2023-02-26T04:41:52;2.77;;;1.30;;
15254;SDS011;7730;49.610;11.136;2023-02-26T04:44:19;3.07;;;1.33;;
15254;SDS011;7730;49.610;11.136;2023-02-26T04:46:47;3.27;;;1.37;;
15254;SDS011;7730;49.610;11.136;2023-02-26T04:49:14;2.60;;;1.43;;
15254;SDS011;7730;49.610;11.136;2023-02-26T04:51:41;4.40;;;1.37;;
15254;SDS011;7730;49.610;11.136;2023-02-26T04:54:08;3.67;;;1.57;;
15254;SDS011;7730;49.610;11.136;2023-02-26T04:56:35;2.07;;;1.30;;
15254;SDS011;7730;49.610;11.136;2023-02-26T04:59:02;3.83;;;1.20;;
15254;SDS011;7730;49.610;11.136;2023-02-26T05:01:29;4.27;;;1.40;;
15254;SDS011;7730;49.610;11.136;2023-02-26T05:03:58;3.30;;;1.10;;
15254;SDS011;7730;49.610;11.136;2023-02-26T05:06:25;3.27;;;1.40;;
15254;SDS011;7730;49.610;11.136;2023-02-26T05:08:52;3.13;;;1.37;;
15254;SDS011;7730;49.610;11.136;2023-02-26T05:11:19;3.63;;;1.10;;
15254;SDS011;7730;49.610;11.136;2023-02-26T05:13:46;5.40;;;1.57;;
15254;SDS011;7730;49.610;11.136;2023-02-26T05:16:13;5.17;;;1.53;;
15254;SDS011;7730;49.610;11.136;2023-02-26T05:18:40;3.33;;;1.60;;
15254;SDS011;7730;49.610;11.136;2023-02-26T05:21:08;2.60;;;1.47;;
15254;SDS011;7730;49.610;11.136;2023-02-26T05:23:35;4.03;;;1.50;;
15254;SDS011;7730;49.610;11.136;2023-02-26T05:26:02;5.80;;;1.57;;
15254;SDS011;7730;49.610;11.136;2023-02-26T05:28:29;3.63;;;1.50;;
15254;SDS011;7730;49.610;11.136;2023-02-26T05:30:57;3.43;;;1.23;;
15254;SDS011;7730;49.610;11.136;2023-02-26T05:33:25;5.30;;;1.63;;
15254;SDS011;7730;49.610;11.136;2023-02-26T05:35:52;3.50;;;1.33;;
15254;SDS011;7730;49.610;11.136;2023-02-26T05:38:20;3.57;;;1.30;;
15254;SDS011;7730;49.610;11.136;2023-02-26T05:40:47;4.80;;;1.57;;
15254;SDS011;7730;49.610;11.136;2023-02-26T05:43:14;2.83;;;1.30;;
15254;SDS011;7730;49.610;11.136;2023-02-26T05:45:41;4.13;;;1.50;;
15254;SDS011;7730;49.610;11.136;2023-02-26T05:48:08;3.67;;;1.40;;
15254;SDS011;7730;49.610;11.136;2023-02-26T05:50:36;2.60;;;1.40;;
15254;SDS011;7730;49.610;11.136;2023-02-26T05:53:03;3.27;;;1.30;;
15254;SDS011;7730;49.610;11.136;2023-02-26T05:55:31;2.27;;;1.40;;
15254;SDS011;7730;49.610;11.136;2023-02-26T05:57:58;2.80;;;1.17;;
15254;SDS011;7730;49.610;11.136;2023-02-26T06:00:25;4.47;;;1.47;;
15254;SDS011;7730;49.610;11.136;2023-02-26T06:02:53;4.50;;;1.40;;
15254;SDS011;7730;49.610;11.136;2023-02-26T06:05:20;3.83;;;1.60;;
15254;SDS011;7730;49.610;11.136;2023-02-26T06:07:47;4.07;;;1.60;;
15254;SDS011;7730;49.610;11.136;2023-02-26T06:10:14;4.87;;;1.50;;
15254;SDS011;7730;49.610;11.136;2023-02-26T06:12:42;3.70;;;1.53;;
15254;SDS011;7730;49.610;11.136;2023-02-26T06:15:10;6.27;;;2.07;;
15254;SDS011;7730;49.610;11.136;2023-02-26T06:17:37;5.97;;;2.17;;
15254;SDS011;7730;49.610;11.136;2023-02-26T06:20:05;4.57;;;1.80;;
15254;SDS011;7730;49.610;11.136;2023-02-26T06:22:32;6.67;;;2.40;;
15254;SDS011;7730;49.610;11.136;2023-02-26T06:24:59;5.17;;;2.20;;
15254;SDS011;7730;49.610;11.136;2023-02-26T06:27:26;4.40;;;1.83;;
15254;SDS011;7730;49.610;11.136;2023-02-26T06:29:54;5.20;;;1.93;;
15254;SDS011;7730;49.610;11.136;2023-02-26T06:32:21;5.30;;;2.00;;
15254;SDS011;7730;49.610;11.136;2023-02-26T06:34:48;6.13;;;2.43;;
15254;SDS011;7730;49.610;11.136;2023-02-26T06:37:15;7.73;;;2.40;;
15254;SDS011;7730;49.610;11.136;2023-02-26T06:39:42;6.60;;;2.40;;
15254;SDS011;7730;49.610;11.136;2023-02-26T06:42:09;7.07;;;2.20;;
15254;SDS011;7730;49.610;11.136;2023-02-26T06:44:36;6.93;;;2.90;;
15254;SDS011;7730;49.610;11.136;2023-02-26T06:47:04;7.80;;;2.63;;
15254;SDS011;7730;49.610;11.136;2023-02-26T06:49:31;8.37;;;2.50;;
15254;SDS011;7730;49.610;11.136;2023-02-26T06:51:58;6.23;;;2.60;;
15254;SDS011;7730;49.610;11.136;2023-02-26T06:54:25;7.37;;;2.53;;
15254;SDS011;7730;49.610;11.136;2023-02-26T06:56:52;4.93;;;2.00;;
15254;SDS011;7730;49.610;11.136;2023-02-26T06:59:21;5.43;;;2.20;;
15254;SDS011;7730;49.610;11.136;2023-02-26T07:01:48;3.73;;;2.10;;
15254;SDS011;7730;49.610;11.136;2023-02-26T07:04:17;5.27;;;1.90;;
15254;SDS011;7730;49.610;11.136;2023-02-26T07:06:44;2.93;;;1.67;;
15254;SDS011;7730;49.610;11.136;2023-02-26T07:09:11;6.27;;;2.30;;
15254;SDS011;7730;49.610;11.136;2023-02-26T07:11:38;5.63;;;1.90;;
15254;SDS011;7730;49.610;11.136;2023-02-26T07:14:05;5.30;;;2.20;;
15254;SDS011;7730;49.610;11.136;2023-02-26T07:16:32;3.57;;;1.80;;
15254;SDS011;7730;49.610;11.136;2023-02-26T07:18:59;5.90;;;1.80;;
15254;SDS011;7730;49.610;11.136;2023-02-26T07:21:27;5.03;;;1.80;;
15254;SDS011;7730;49.610;11.136;2023-02-26T07:23:54;4.00;;;1.83;;
15254;SDS011;7730;49.610;11.136;2023-02-26T07:26:21;4.30;;;1.70;;
15254;SDS011;7730;49.610;11.136;2023-02-26T07:28:48;5.73;;;1.80;;
15254;SDS011;7730;49.610;11.136;2023-02-26T07:31:15;3.33;;;1.80;;
15254;SDS011;7730;49.610;11.136;2023-02-26T07:33:42;5.50;;;2.00;;
15254;SDS011;7730;49.610;11.136;2023-02-26T07:36:09;6.23;;;2.53;;
15254;SDS011;7730;49.610;11.136;2023-02-26T07:38:37;5.70;;;2.40;;
15254;SDS011;7730;49.610;11.136;2023-02-26T07:41:04;5.73;;;2.50;;
15254;SDS011;7730;49.610;11.136;2023-02-26T07:43:31;5.13;;;1.80;;
15254;SDS011;7730;49.610;11.136;2023-02-26T07:45:58;4.57;;;2.07;;
15254;SDS011;7730;49.610;11.136;2023-02-26T07:48:25;3.37;;;1.90;;
15254;SDS011;7730;49.610;11.136;2023-02-26T07:50:52;4.47;;;2.00;;
15254;SDS011;7730;49.610;11.136;2023-02-26T07:53:19;3.80;;;1.90;;
15254;SDS011;7730;49.610;11.136;2023-02-26T07:55:48;3.57;;;1.80;;
15254;SDS011;7730;49.610;11.136;2023-02-26T07:58:15;3.93;;;1.90;;
15254;SDS011;7730;49.610;11.136;2023-02-26T08:00:42;2.63;;;1.80;;
15254;SDS011;7730;49.610;11.136;2023-02-26T08:03:09;2.53;;;1.70;;
15254;SDS011;7730;49.610;11.136;2023-02-26T08:05:36;4.73;;;2.10;;
15254;SDS011;7730;49.610;11.136;2023-02-26T08:08:03;3.73;;;2.10;;
15254;SDS011;7730;49.610;11.136;2023-02-26T08:10:30;3.03;;;1.80;;
15254;SDS011;7730;49.610;11.136;2023-02-26T08:12:58;2.60;;;1.50;;
15254;SDS011;7730;49.610;11.136;2023-02-26T08:15:25;2.30;;;1.70;;
15254;SDS011;7730;49.610;11.136;2023-02-26T08:17:52;2.83;;;1.60;;
15254;SDS011;7730;49.610;11.136;2023-02-26T08:20:20;2.30;;;1.63;;
15254;SDS011;7730;49.610;11.136;2023-02-26T08:22:48;1.87;;;1.40;;
15254;SDS011;7730;49.610;11.136;2023-02-26T08:25:16;1.60;;;1.40;;
15254;SDS011;7730;49.610;11.136;2023-02-26T08:27:43;2.17;;;1.50;;
15254;SDS011;7730;49.610;11.136;2023-02-26T08:30:12;2.90;;;1.70;;
15254;SDS011;7730;49.610;11.136;2023-02-26T08:32:39;2.63;;;1.50;;
15254;SDS011;7730;49.610;11.136;2023-02-26T08:35:07;1.63;;;1.20;;
15254;SDS011;7730;49.610;11.136;2023-02-26T08:37:34;2.00;;;1.30;;
15254;SDS011;7730;49.610;11.136;2023-02-26T08:40:02;1.67;;;1.17;;
15254;SDS011;7730;49.610;11.136;2023-02-26T08:42:29;1.23;;;1.07;;
15254;SDS011;7730;49.610;11.136;2023-02-26T08:44:56;2.40;;;1.33;;
15254;SDS011;7730;49.610;11.136;2023-02-26T08:47:25;1.30;;;1.10;;
15254;SDS011;7730;49.610;11.136;2023-02-26T08:49:52;2.00;;;1.10;;
15254;SDS011;7730;49.610;11.136;2023-02-26T08:52:19;1.67;;;1.10;;
15254;SDS011;7730;49.610;11.136;2023-02-26T08:54:46;1.60;;;1.30;;
15254;SDS011;7730;49.610;11.136;2023-02-26T08:57:13;1.77;;;1.08;;
15254;SDS011;7730;49.610;11.136;2023-02-26T08:59:40;1.97;;;1.30;;
15254;SDS011;7730;49.610;11.136;2023-02-26T09:02:08;1.00;;;1.00;;
15254;SDS011;7730;49.610;11.136;2023-02-26T09:04:37;1.27;;;1.17;;
15254;SDS011;7730;49.610;11.136;2023-02-26T09:07:04;1.40;;;1.27;;
15254;SDS011;7730;49.610;11.136;2023-02-26T09:09:31;1.20;;;1.10;;
15254;SDS011;7730;49.610;11.136;2023-02-26T09:11:58;1.63;;;1.20;;
15254;SDS011;7730;49.610;11.136;2023-02-26T09:14:25;1.73;;;1.30;;
15254;SDS011;7730;49.610;11.136;2023-02-26T09:16:53;1.80;;;1.33;;
15254;SDS011;7730;49.610;11.136;2023-02-26T09:19:20;1.53;;;1.27;;
15254;SDS011;7730;49.610;11.136;2023-02-26T09:21:48;1.30;;;1.13;;
15254;SDS011;7730;49.610;11.136;2023-02-26T09:24:15;1.33;;;1.13;;
15254;SDS011;7730;49.610;11.136;2023-02-26T09:26:42;1.07;;;0.97;;
15254;SDS011;7730;49.610;11.136;2023-02-26T09:29:09;1.17;;;1.07;;
15254;SDS011;7730;49.610;11.136;2023-02-26T09:31:37;3.97;;;2.33;;
15254;SDS011;7730;49.610;11.136;2023-02-26T09:34:04;2.83;;;1.90;;
15254;SDS011;7730;49.610;11.136;2023-02-26T09:36:31;1.43;;;1.33;;
15254;SDS011;7730;49.610;11.136;2023-02-26T09:38:59;2.07;;;1.40;;
15254;SDS011;7730;49.610;11.136;2023-02-26T09:41:27;1.20;;;1.10;;
15254;SDS011;7730;49.610;11.136;2023-02-26T09:43:59;1.63;;;1.10;;
15254;SDS011;7730;49.610;11.136;2023-02-26T09:46:31;1.57;;;1.10;;
15254;SDS011;7730;49.610;11.136;2023-02-26T09:49:02;1.23;;;1.13;;
15254;SDS011;7730;49.610;11.136;2023-02-26T09:51:30;2.23;;;1.23;;
15254;SDS011;7730;49.610;11.136;2023-02-26T09:54:01;1.57;;;1.17;;
15254;SDS011;7730;49.610;11.136;2023-02-26T09:56:33;1.17;;;1.10;;
15254;SDS011;7730;49.610;11.136;2023-02-26T09:59:01;2.30;;;1.10;;
15254;SDS011;7730;49.610;11.136;2023-02-26T10:01:30;1.40;;;1.03;;
15254;SDS011;7730;49.610;11.136;2023-02-26T10:03:59;1.95;;;1.00;;
15254;SDS011;7730;49.610;11.136;2023-02-26T10:06:28;1.40;;;1.00;;
15254;SDS011;7730;49.610;11.136;2023-02-26T10:09:01;1.93;;;1.17;;
15254;SDS011;7730;49.610;11.136;2023-02-26T10:11:33;1.87;;;0.93;;
15254;SDS011;7730;49.610;11.136;2023-02-26T10:14:01;1.50;;;1.00;;
15254;SDS011;7730;49.610;11.136;2023-02-26T10:16:30;1.10;;;0.87;;
15254;SDS011;7730;49.610;11.136;2023-02-26T10:19:00;0.90;;;0.80;;
15254;SDS011;7730;49.610;11.136;2023-02-26T10:21:29;1.33;;;1.10;;
15254;SDS011;7730;49.610;11.136;2023-02-26T10:23:59;1.70;;;1.30;;
15254;SDS011;7730;49.610;11.136;2023-02-26T10:26:29;1.30;;;1.13;;
15254;SDS011;7730;49.610;11.136;2023-02-26T10:29:00;2.83;;;1.70;;
15254;SDS011;7730;49.610;11.136;2023-02-26T10:31:30;1.30;;;0.93;;
15254;SDS011;7730;49.610;11.136;2023-02-26T10:34:02;2.60;;;1.20;;
15254;SDS011;7730;49.610;11.136;2023-02-26T10:36:34;1.83;;;1.00;;
15254;SDS011;7730;49.610;11.136;2023-02-26T10:39:11;1.50;;;1.17;;
15254;SDS011;7730;49.610;11.136;2023-02-26T10:41:41;1.87;;;1.00;;
15254;SDS011;7730;49.610;11.136;2023-02-26T10:44:12;1.13;;;1.03;;
15254;SDS011;7730;49.610;11.136;2023-02-26T10:46:41;1.20;;;0.90;;
15254;SDS011;7730;49.610;11.136;2023-02-26T10:51:53;1.10;;;1.00;;
15254;SDS011;7730;49.610;11.136;2023-02-26T10:54:21;1.07;;;0.97;;
15254;SDS011;7730;49.610;11.136;2023-02-26T10:56:50;1.60;;;0.90;;
15254;SDS011;7730;49.610;11.136;2023-02-26T10:59:18;0.87;;;0.80;;
15254;SDS011;7730;49.610;11.136;2023-02-26T11:01:45;1.13;;;0.90;;
15254;SDS011;7730;49.610;11.136;2023-02-26T11:04:14;1.50;;;1.03;;
15254;SDS011;7730;49.610;11.136;2023-02-26T11:06:43;1.70;;;1.10;;
15254;SDS011;7730;49.610;11.136;2023-02-26T11:09:13;1.17;;;1.07;;
15254;SDS011;7730;49.610;11.136;2023-02-26T11:11:48;1.37;;;1.00;;
15254;SDS011;7730;49.610;11.136;2023-02-26T11:14:16;1.57;;;1.00;;
15254;SDS011;7730;49.610;11.136;2023-02-26T11:16:46;1.10;;;1.00;;
15254;SDS011;7730;49.610;11.136;2023-02-26T11:19:14;2.10;;;1.30;;
15254;SDS011;7730;49.610;11.136;2023-02-26T11:21:42;1.90;;;1.40;;
15254;SDS011;7730;49.610;11.136;2023-02-26T11:24:11;2.13;;;1.30;;
15254;SDS011;7730;49.610;11.136;2023-02-26T11:26:41;1.70;;;1.17;;
15254;SDS011;7730;49.610;11.136;2023-02-26T11:29:12;4.07;;;1.50;;
15254;SDS011;7730;49.610;11.136;2023-02-26T11:31:40;2.03;;;1.30;;
15254;SDS011;7730;49.610;11.136;2023-02-26T11:34:10;2.33;;;1.23;;
15254;SDS011;7730;49.610;11.136;2023-02-26T11:36:38;2.00;;;1.00;;
15254;SDS011;7730;49.610;11.136;2023-02-26T11:39:06;1.53;;;1.10;;
15254;SDS011;7730;49.610;11.136;2023-02-26T11:41:34;2.43;;;1.50;;
15254;SDS011;7730;49.610;11.136;2023-02-26T11:44:03;2.73;;;0.97;;
15254;SDS011;7730;49.610;11.136;2023-02-26T11:46:30;1.87;;;1.27;;
15254;SDS011;7730;49.610;11.136;2023-02-26T11:49:01;2.93;;;1.30;;
15254;SDS011;7730;49.610;11.136;2023-02-26T11:51:29;1.47;;;1.03;;
15254;SDS011;7730;49.610;11.136;2023-02-26T11:53:57;2.67;;;1.10;;
15254;SDS011;7730;49.610;11.136;2023-02-26T11:56:26;1.73;;;1.20;;
15254;SDS011;7730;49.610;11.136;2023-02-26T11:58:56;1.80;;;1.00;;
15254;SDS011;7730;49.610;11.136;2023-02-26T12:01:25;0.88;;;0.88;;
15254;SDS011;7730;49.610;11.136;2023-02-26T12:03:54;3.13;;;1.30;;
15254;SDS011;7730;49.610;11.136;2023-02-26T12:06:23;2.07;;;0.97;;
15254;SDS011;7730;49.610;11.136;2023-02-26T12:08:51;0.90;;;0.90;;
15254;SDS011;7730;49.610;11.136;2023-02-26T12:11:25;2.13;;;1.00;;
15254;SDS011;7730;49.610;11.136;2023-02-26T12:13:58;2.87;;;1.30;;
15254;SDS011;7730;49.610;11.136;2023-02-26T12:16:29;1.25;;;1.15;;
15254;SDS011;7730;49.610;11.136;2023-02-26T12:19:03;1.38;;;1.00;;
15254;SDS011;7730;49.610;11.136;2023-02-26T12:21:40;1.38;;;1.10;;
15254;SDS011;7730;49.610;11.136;2023-02-26T12:24:29;2.53;;;1.10;;
15254;SDS011;7730;49.610;11.136;2023-02-26T12:26:58;3.00;;;1.33;;
15254;SDS011;7730;49.610;11.136;2023-02-26T12:29:31;2.60;;;1.20;;
15254;SDS011;7730;49.610;11.136;2023-02-26T12:32:05;1.80;;;1.00;;
15254;SDS011;7730;49.610;11.136;2023-02-26T12:34:41;3.37;;;1.20;;
15254;SDS011;7730;49.610;11.136;2023-02-26T12:37:15;2.97;;;1.50;;
15254;SDS011;7730;49.610;11.136;2023-02-26T12:39:49;4.68;;;2.30;;
15254;SDS011;7730;49.610;11.136;2023-02-26T12:42:23;4.77;;;2.00;;
15254;SDS011;7730;49.610;11.136;2023-02-26T12:44:54;3.27;;;1.80;;
15254;SDS011;7730;49.610;11.136;2023-02-26T12:47:27;2.37;;;1.03;;
15254;SDS011;7730;49.610;11.136;2023-02-26T12:49:59;1.33;;;0.90;;
15254;SDS011;7730;49.610;11.136;2023-02-26T12:52:45;3.03;;;1.20;;
15254;SDS011;7730;49.610;11.136;2023-02-26T12:55:21;2.23;;;1.20;;
15254;SDS011;7730;49.610;11.136;2023-02-26T12:57:53;1.47;;;1.17;;
15254;SDS011;7730;49.610;11.136;2023-02-26T13:00:33;1.87;;;1.13;;
15254;SDS011;7730;49.610;11.136;2023-02-26T13:03:24;2.43;;;1.30;;
15254;SDS011;7730;49.610;11.136;2023-02-26T13:06:03;2.73;;;1.60;;
15254;SDS011;7730;49.610;11.136;2023-02-26T13:08:33;2.97;;;1.27;;
15254;SDS011;7730;49.610;11.136;2023-02-26T13:11:06;4.10;;;1.30;;
15254;SDS011;7730;49.610;11.136;2023-02-26T13:16:28;1.87;;;1.00;;
15254;SDS011;7730;49.610;11.136;2023-02-26T13:18:59;1.23;;;0.90;;
15254;SDS011;7730;49.610;11.136;2023-02-26T13:21:28;2.40;;;1.10;;
15254;SDS011;7730;49.610;11.136;2023-02-26T13:23:58;4.40;;;1.30;;
15254;SDS011;7730;49.610;11.136;2023-02-26T13:26:30;4.87;;;1.70;;
15254;SDS011;7730;49.610;11.136;2023-02-26T13:28:58;1.83;;;1.00;;
15254;SDS011;7730;49.610;11.136;2023-02-26T13:31:27;1.33;;;1.00;;
15254;SDS011;7730;49.610;11.136;2023-02-26T13:33:57;3.83;;;1.20;;
15254;SDS011;7730;49.610;11.136;2023-02-26T13:36:26;2.88;;;1.30;;
15254;SDS011;7730;49.610;11.136;2023-02-26T13:38:57;2.77;;;1.27;;
15254;SDS011;7730;49.610;11.136;2023-02-26T13:41:32;2.13;;;1.70;;
15254;SDS011;7730;49.610;11.136;2023-02-26T13:44:06;2.30;;;1.50;;
15254;SDS011;7730;49.610;11.136;2023-02-26T13:46:38;2.00;;;1.20;;
15254;SDS011;7730;49.610;11.136;2023-02-26T13:49:09;3.47;;;1.25;;
15254;SDS011;7730;49.610;11.136;2023-02-26T13:51:38;2.38;;;1.27;;
15254;SDS011;7730;49.610;11.136;2023-02-26T13:54:07;2.93;;;1.33;;
15254;SDS011;7730;49.610;11.136;2023-02-26T13:56:48;1.23;;;1.07;;
15254;SDS011;7730;49.610;11.136;2023-02-26T14:04:52;4.47;;;1.42;;
15254;SDS011;7730;49.610;11.136;2023-02-26T14:10:02;1.88;;;1.20;;
15254;SDS011;7730;49.610;11.136;2023-02-26T14:12:36;2.40;;;1.20;;
15254;SDS011;7730;49.610;11.136;2023-02-26T14:15:17;3.23;;;1.27;;
15254;SDS011;7730;49.610;11.136;2023-02-26T14:17:46;2.22;;;1.10;;
15254;SDS011;7730;49.610;11.136;2023-02-26T14:20:16;3.03;;;1.35;;
15254;SDS011;7730;49.610;11.136;2023-02-26T14:22:46;4.83;;;1.20;;
15254;SDS011;7730;49.610;11.136;2023-02-26T14:25:15;3.07;;;1.23;;
15254;SDS011;7730;49.610;11.136;2023-02-26T14:27:45;2.27;;;1.17;;
15254;SDS011;7730;49.610;11.136;2023-02-26T14:30:18;3.70;;;1.47;;
15254;SDS011;7730;49.610;11.136;2023-02-26T14:32:46;1.50;;;0.90;;
15254;SDS011;7730;49.610;11.136;2023-02-26T14:35:14;3.20;;;1.40;;
15254;SDS011;7730;49.610;11.136;2023-02-26T14:37:43;1.50;;;1.00;;
15254;SDS011;7730;49.610;11.136;2023-02-26T14:40:12;2.83;;;1.30;;
15254;SDS011;7730;49.610;11.136;2023-02-26T14:42:41;2.80;;;1.30;;
15254;SDS011;7730;49.610;11.136;2023-02-26T14:45:16;2.13;;;1.60;;
15254;SDS011;7730;49.610;11.136;2023-02-26T14:47:44;4.47;;;1.90;;
15254;SDS011;7730;49.610;11.136;2023-02-26T14:50:12;3.50;;;1.80;;
15254;SDS011;7730;49.610;11.136;2023-02-26T14:55:34;5.18;;;2.63;;
15254;SDS011;7730;49.610;11.136;2023-02-26T14:58:19;3.30;;;1.70;;
15254;SDS011;7730;49.610;11.136;2023-02-26T15:00:51;4.43;;;2.00;;
15254;SDS011;7730;49.610;11.136;2023-02-26T15:06:12;2.05;;;1.60;;
15254;SDS011;7730;49.610;11.136;2023-02-26T15:08:46;2.90;;;1.50;;
15254;SDS011;7730;49.610;11.136;2023-02-26T15:11:18;3.83;;;1.93;;
15254;SDS011;7730;49.610;11.136;2023-02-26T15:16:39;2.95;;;1.48;;
15254;SDS011;7730;49.610;11.136;2023-02-26T15:19:18;3.77;;;1.60;;
15254;SDS011;7730;49.610;11.136;2023-02-26T15:21:51;3.40;;;1.40;;
15254;SDS011;7730;49.610;11.136;2023-02-26T15:24:21;2.47;;;1.30;;
15254;SDS011;7730;49.610;11.136;2023-02-26T15:26:50;2.50;;;1.60;;
15254;SDS011;7730;49.610;11.136;2023-02-26T15:29:19;2.03;;;1.30;;
15254;SDS011;7730;49.610;11.136;2023-02-26T15:31:51;1.63;;;1.20;;